Latest Weather Observations for Ballina

IDN60801

Issued at 10:05 am EST Sunday 31 August 2014 (issued every 30 minutes, with the page automatically refreshed every 10 minutes)

About weather observations | Map of weather stations | Latest weather observations for NSW | Other Formats
Station Details ID: 058198 Name: BALLINA AIRPORT AWS Lat: -28.84 Lon: 153.56 Height: 1.3 m
Data from the previous 72 hours. | See also: Recent months at Ballina
Date/Time
EST
Temp
°C
App
Temp
°C
Dew
Point
Rel
Hum
%
Delta-T
°C
Wind Press
QNH
hPa
Press
MSL
hPa
Rain
since 9 am
mm
Dir
 
Spd
km/h
Gust
km/h
Spd
kts
Gust
kts
31/10:00am 20.3 17.0 11.5 57 4.8 SSW 20 30 11 16 1019.0 1019.0 0.0
31/09:30am 19.5 16.1 11.3 59 4.5 SSW 20 28 11 15 1019.2 - 0.0
31/09:00am 19.0 15.8 11.3 61 4.2 SW 19 26 10 14 1019.3 1019.3 0.0
31/08:30am 19.0 16.4 12.0 64 3.9 WSW 17 24 9 13 1019.2 - 0.0
31/08:00am 18.1 16.2 11.9 67 3.4 WSW 13 17 7 9 1019.3 1019.3 0.0
31/07:30am 17.0 15.3 12.3 74 2.6 WSW 13 17 7 9 1019.2 - 0.0
31/07:00am 15.7 13.8 11.7 77 2.2 WSW 13 15 7 8 1019.0 1019.0 0.0
31/06:30am 14.7 12.8 11.7 82 1.6 W 13 15 7 8 1018.8 - 0.0
31/06:00am 14.5 12.4 11.1 80 1.8 W 13 15 7 8 1018.6 1018.6 0.0
31/05:30am 14.4 12.4 11.4 82 1.6 W 13 17 7 9 1018.4 - 0.0
31/05:00am 14.4 12.4 11.4 82 1.6 W 13 15 7 8 1017.9 1017.9 0.0
31/04:30am 14.4 12.4 11.4 82 1.6 W 13 15 7 8 1017.9 - 0.0
31/04:00am 13.7 11.8 11.7 88 1.1 W 13 13 7 7 1017.8 1017.8 0.0
31/03:30am 12.0 12.4 11.4 96 0.3 CALM 0 6 0 3 1017.8 - 0.0
31/03:13am 11.7 12.0 10.9 95 0.4 CALM 0 4 0 2 1017.7 - 0.0
31/03:00am 11.2 9.6 10.1 93 0.6 W 9 11 5 6 1017.8 1017.8 0.0
31/02:30am 11.5 10.3 10.2 92 0.7 W 7 9 4 5 1017.7 - 0.0
31/02:27am 11.4 10.1 10.1 92 0.7 W 7 9 4 5 1017.8 - 0.0
31/02:22am 11.6 10.4 10.3 92 0.7 W 7 7 4 4 1017.8 - 0.0
31/02:00am 12.1 11.2 10.7 91 0.7 W 6 7 3 4 1017.9 1017.9 0.0
31/01:30am 12.1 11.1 10.3 89 0.9 W 6 7 3 4 1018.2 - 0.0
31/01:00am 12.5 11.9 11.6 94 0.5 WNW 6 7 3 4 1018.4 1018.4 0.0
31/12:52am 12.4 11.6 11.6 95 0.4 NW 7 9 4 5 1018.4 - 0.0
31/12:30am 12.0 11.2 10.9 93 0.6 W 6 7 3 4 1018.5 - 0.0
31/12:00am 12.1 10.6 10.5 90 0.8 W 9 11 5 6 1018.6 1018.6 0.0
 
Date/Time
EST
Temp
°C
App
Temp
°C
Dew
Point
Rel
Hum
%
Delta-T
°C
Wind Press
QNH
hPa
Press
MSL
hPa
Rain
since 9 am
mm
Dir
 
Spd
km/h
Gust
km/h
Spd
kts
Gust
kts
30/11:30pm 12.9 12.2 11.5 91 0.7 W 6 9 3 5 1018.5 - 0.0
30/11:00pm 13.1 12.0 11.8 92 0.7 W 9 11 5 6 1018.5 1018.5 0.0
30/10:30pm 13.6 12.6 12.2 91 0.8 WSW 9 11 5 6 1018.4 - 0.0
30/10:00pm 14.4 13.2 12.8 90 0.9 WSW 11 13 6 7 1018.3 1018.3 0.0
30/09:30pm 14.0 13.4 12.4 90 0.9 WSW 7 9 4 5 1018.3 - 0.0
30/09:00pm 14.6 14.5 13.3 92 0.7 W 6 7 3 4 1018.3 1018.3 0.0
30/08:30pm 15.2 14.9 13.4 89 1.0 WSW 7 7 4 4 1018.3 - 0.0
30/08:00pm 14.8 14.0 12.8 88 1.1 WSW 9 11 5 6 1018.2 1018.2 0.0
30/07:30pm 15.1 14.3 12.8 86 1.3 WSW 9 13 5 7 1018.0 - 0.0
30/07:00pm 16.8 16.2 13.5 81 1.9 SW 9 13 5 7 1017.8 1017.8 0.0
30/06:30pm 16.9 15.8 13.2 79 2.1 SW 11 15 6 8 1017.7 - 0.0
30/06:00pm 17.7 16.6 13.2 75 2.5 SW 11 15 6 8 1017.5 1017.5 0.0
30/05:30pm 18.0 17.2 12.9 72 2.9 SW 9 11 5 6 1017.3 - 0.0
30/05:00pm 18.9 16.9 12.6 67 3.5 SSW 15 26 8 14 1017.3 1017.3 0.0
30/04:30pm 19.3 16.4 12.3 64 3.9 SSW 19 30 10 16 1017.2 - 0.0
30/04:00pm 19.2 16.2 12.5 65 3.7 S 20 30 11 16 1017.1 1017.1 0.0
30/03:30pm 19.8 16.2 13.0 65 3.8 S 24 33 13 18 1017.0 - 0.0
30/03:00pm 20.2 16.3 13.2 64 4.0 S 26 35 14 19 1017.1 1017.1 0.0
30/02:30pm 20.3 16.5 13.7 66 3.8 S 26 35 14 19 1017.1 - 0.0
30/02:00pm 20.3 15.9 13.0 63 4.1 S 28 39 15 21 1017.2 1017.2 0.0
30/01:30pm 20.3 15.8 12.5 61 4.4 S 28 37 15 20 1017.4 - 0.0
30/01:00pm 20.0 15.2 11.7 59 4.6 S 28 37 15 20 1017.7 1017.7 0.0
30/12:30pm 19.9 17.0 10.9 56 4.9 SW 17 24 9 13 1018.0 - 0.0
30/12:00pm 19.8 16.4 10.5 55 5.0 SW 19 35 10 19 1018.6 1018.6 0.0
30/11:30am 19.9 16.6 10.9 56 4.9 SW 19 28 10 15 1018.8 - 0.0
30/11:00am 18.8 15.0 9.8 56 4.8 SW 20 28 11 15 1019.1 1019.1 0.0
30/10:30am 18.5 14.3 8.2 51 5.3 WSW 20 28 11 15 1019.4 - 0.0
30/10:00am 18.1 13.8 7.8 51 5.2 W 20 28 11 15 1019.5 1019.5 0.0
30/09:30am 17.6 13.2 7.4 51 5.1 W 20 28 11 15 1019.7 - 0.0
30/09:00am 17.2 12.8 7.5 53 4.9 W 20 28 11 15 1019.7 1019.7 0.0
30/08:30am 16.6 12.7 7.0 53 4.8 W 17 22 9 12 1019.7 - 0.0
30/08:00am 15.9 11.3 6.6 54 4.5 W 20 24 11 13 1019.6 1019.6 0.0
30/07:30am 15.0 11.5 7.1 59 3.9 W 15 19 8 10 1019.5 - 0.0
30/07:00am 13.9 10.3 6.7 62 3.5 W 15 17 8 9 1019.2 1019.2 0.0
30/06:30am 12.8 8.7 6.4 65 3.0 W 17 24 9 13 1018.9 - 0.0
30/06:00am 12.4 8.5 6.9 69 2.6 W 17 20 9 11 1018.7 1018.7 0.0
30/05:30am 11.5 8.2 6.4 71 2.4 W 13 19 7 10 1018.7 - 0.0
30/05:00am 11.3 8.1 6.8 74 2.1 W 13 19 7 10 1018.5 1018.5 0.0
30/04:30am 10.7 7.2 7.0 78 1.8 W 15 17 8 9 1018.3 - 0.0
30/04:00am 11.2 7.7 7.3 77 1.9 W 15 20 8 11 1018.3 1018.3 0.0
30/03:30am 11.3 7.9 7.8 79 1.7 W 15 19 8 10 1018.3 - 0.0
30/03:00am 11.3 8.2 7.4 77 1.9 WNW 13 17 7 9 1018.5 1018.5 0.0
30/02:30am 10.5 6.9 6.8 78 1.7 W 15 17 8 9 1018.7 - 0.0
30/02:00am 10.8 7.7 7.3 79 1.7 W 13 15 7 8 1019.0 1019.0 0.0
30/01:30am 11.6 8.6 7.7 77 1.9 WSW 13 17 7 9 1019.1 - 0.0
30/01:00am 10.4 7.7 7.5 82 1.4 W 11 15 6 8 1019.4 1019.4 0.0
30/12:30am 10.9 8.8 8.3 84 1.3 W 9 11 5 6 1019.6 - 0.0
30/12:00am 10.5 9.0 8.4 87 1.0 WSW 6 7 3 4 1019.7 1019.7 0.0
 
Date/Time
EST
Temp
°C
App
Temp
°C
Dew
Point
Rel
Hum
%
Delta-T
°C
Wind Press
QNH
hPa
Press
MSL
hPa
Rain
since 9 am
mm
Dir
 
Spd
km/h
Gust
km/h
Spd
kts
Gust
kts
29/11:30pm 12.0 10.5 8.3 78 1.8 W 6 7 3 4 1020.0 - 0.0
29/11:00pm 12.3 10.2 8.2 76 2.0 W 9 9 5 5 1020.1 1020.1 0.0
29/10:30pm 12.8 10.8 8.7 76 2.0 W 9 11 5 6 1020.4 - 0.0
29/10:00pm 12.9 11.1 9.5 80 1.7 W 9 11 5 6 1020.4 1020.4 0.0
29/09:30pm 12.8 12.9 10.3 85 1.3 CALM 0 0 0 0 1020.5 - 0.0
29/09:00pm 13.9 12.5 9.5 75 2.2 WSW 7 9 4 5 1020.8 1020.8 0.0
29/08:30pm 14.0 12.3 9.8 76 2.2 WSW 9 11 5 6 1020.8 - 0.0
29/08:00pm 14.0 12.3 9.8 76 2.2 WSW 9 11 5 6 1020.9 1020.9 0.0
29/07:30pm 13.5 11.5 10.1 80 1.8 W 11 13 6 7 1020.8 - 0.0
29/07:00pm 13.9 12.2 9.7 76 2.2 WSW 9 13 5 7 1020.7 1020.7 0.0
29/06:30pm 14.8 12.7 8.3 65 3.3 SW 9 15 5 8 1020.6 - 0.0
29/06:00pm 16.6 13.7 8.3 58 4.2 S 13 22 7 12 1020.3 1020.3 0.0
29/05:30pm 16.6 13.8 8.6 59 4.1 S 13 20 7 11 1020.1 - 0.0
29/05:00pm 17.6 13.7 8.5 55 4.7 S 19 28 10 15 1019.8 1019.8 0.0
29/04:30pm 18.0 13.9 8.6 54 4.9 S 20 28 11 15 1019.6 - 0.0
29/04:00pm 18.5 13.5 6.4 45 6.0 S 22 32 12 17 1019.7 1019.7 0.0
29/03:30pm 18.8 12.9 7.6 48 5.7 S 28 39 15 21 1019.7 - 0.0
29/03:00pm 19.1 13.5 8.7 51 5.4 S 28 39 15 21 1019.8 1019.8 0.0
29/02:30pm 19.1 13.6 7.5 47 5.9 S 26 37 14 20 1020.0 - 0.0
29/02:00pm 19.1 13.6 9.0 52 5.3 S 28 37 15 20 1020.2 1020.2 0.0
29/01:30pm 19.2 14.3 8.5 50 5.6 S 24 35 13 19 1020.4 - 0.0
29/01:00pm 19.4 14.4 8.1 48 5.8 S 24 43 13 23 1020.7 1020.7 0.0
29/12:30pm 19.3 14.1 7.1 45 6.2 S 24 35 13 19 1021.2 - 0.0
29/12:00pm 19.2 14.2 8.2 49 5.7 S 24 33 13 18 1021.7 1021.7 0.0
29/11:30am 18.4 13.3 7.5 49 5.5 SSW 24 35 13 19 1022.2 - 0.0
29/11:00am 18.0 13.2 8.8 55 4.7 SSW 24 33 13 18 1022.6 1022.6 0.0
29/10:30am 18.1 14.2 9.5 57 4.5 SSW 20 28 11 15 1023.0 - 0.0
29/10:00am 17.3 13.3 9.0 58 4.3 SW 20 33 11 18 1023.1 1023.1 0.0
29/09:30am 16.8 12.7 8.5 58 4.2 SW 20 30 11 16 1023.3 - 0.0
29/09:00am 16.3 11.6 7.8 57 4.2 SW 22 37 12 20 1023.3 1023.3 1.0
29/08:30am 16.1 12.3 7.6 57 4.2 SW 17 32 9 17 1023.3 - 1.0
29/08:00am 14.9 10.5 7.2 60 3.8 WSW 20 28 11 15 1023.3 1023.3 1.0
29/07:30am 14.3 10.6 7.8 65 3.2 WSW 17 22 9 12 1023.0 - 1.0
29/07:00am 13.0 10.0 7.9 71 2.5 W 13 19 7 10 1022.6 1022.6 0.2
29/06:30am 11.9 8.9 7.6 75 2.1 W 13 19 7 10 1022.3 - 0.2
29/06:00am 12.3 8.5 7.6 73 2.3 WSW 17 20 9 11 1022.1 1022.1 0.2
29/05:30am 12.9 9.2 8.0 72 2.4 WSW 17 24 9 13 1021.9 - 0.2
29/05:00am 12.7 9.1 8.2 74 2.2 WSW 17 20 9 11 1021.8 1021.8 0.2
29/04:30am 12.1 8.8 8.0 76 2.0 WSW 15 20 8 11 1021.6 - 0.2
29/04:00am 12.4 9.2 8.3 76 2.0 WSW 15 19 8 10 1021.7 1021.7 0.2
29/03:30am 13.2 9.6 8.5 73 2.3 WSW 17 26 9 14 1021.6 - 0.2
29/03:00am 13.0 9.8 8.3 73 2.3 WSW 15 20 8 11 1021.6 1021.6 0.2
29/02:30am 13.5 9.6 8.6 72 2.5 SW 19 28 10 15 1021.6 - 0.2
29/02:00am 13.1 10.0 8.8 75 2.1 WSW 15 20 8 11 1021.6 1021.6 0.2
29/01:30am 13.3 10.2 9.0 75 2.2 WSW 15 20 8 11 1021.6 - 0.2
29/01:00am 14.1 10.6 8.9 71 2.6 WSW 17 24 9 13 1022.0 1022.0 0.2
29/12:30am 13.8 10.3 8.8 72 2.5 SW 17 22 9 12 1022.1 - 0.2
29/12:00am 13.8 10.8 9.3 74 2.3 WSW 15 24 8 13 1022.2 1022.2 0.2
 
Date/Time
EST
Temp
°C
App
Temp
°C
Dew
Point
Rel
Hum
%
Delta-T
°C
Wind Press
QNH
hPa
Press
MSL
hPa
Rain
since 9 am
mm
Dir
 
Spd
km/h
Gust
km/h
Spd
kts
Gust
kts
28/11:30pm 14.2 11.3 9.6 74 2.4 SW 15 22 8 12 1022.3 - 0.2
28/11:00pm 14.2 11.0 9.8 75 2.3 SW 17 26 9 14 1022.3 1022.3 0.2
28/10:30pm 14.4 10.8 10.0 75 2.3 SW 19 26 10 14 1022.3 - 0.2
28/10:00pm 14.7 12.0 10.3 75 2.3 SW 15 20 8 11 1022.5 1022.5 0.2
28/09:30pm 14.8 11.1 10.2 74 2.4 SW 20 30 11 16 1022.5 - 0.2
28/09:00pm 14.6 12.5 11.2 80 1.8 SW 13 19 7 10 1022.5 1022.5 0.2
28/08:30pm 15.0 11.8 11.4 79 1.9 SW 19 30 10 16 1022.5 - 0.2
28/08:00pm 15.1 11.8 11.5 79 1.9 SW 20 35 11 19 1022.4 1022.4 0.2
28/07:30pm 15.4 13.1 11.8 79 1.9 WSW 15 19 8 10 1022.0 - 0.2
28/07:00pm 15.4 11.2 12.3 82 1.7 SSW 26 46 14 25 1022.0 1022.0 0.2
28/06:57pm 15.5 10.9 12.4 82 1.7 SSW 28 46 15 25 1022.0 - 0.2
28/06:30pm 16.3 12.7 11.7 74 2.5 SW 22 30 12 16 1021.6 - 0.2
28/06:00pm 17.3 12.2 10.7 65 3.5 S 28 39 15 21 1021.0 1021.0 0.2
28/05:48pm 17.5 11.0 10.4 63 3.8 S 35 44 19 24 1020.8 - 0.2
28/05:30pm 16.0 13.8 12.2 78 2.1 SW 15 22 8 12 1020.6 - 0.2
28/05:14pm 15.7 11.8 12.1 79 2.0 SW 24 44 13 24 1020.5 - 0.2
28/05:00pm 15.8 10.6 12.7 82 1.7 SSW 32 46 17 25 1020.5 1020.5 0.2
28/04:32pm 17.7 12.8 12.6 72 2.8 S 30 48 16 26 1020.1 - 0.0
28/04:30pm 17.8 12.4 12.3 70 3.0 S 32 48 17 26 1020.1 - 0.0
28/04:00pm 18.5 13.2 11.1 62 4.0 S 30 46 16 25 1019.5 1019.5 0.0
28/03:30pm 18.9 13.3 11.5 62 4.1 S 32 56 17 30 1018.9 - 0.0
28/03:28pm 19.0 13.1 11.3 61 4.2 S 33 56 18 30 1018.8 - 0.0
28/03:00pm 19.2 13.0 11.5 61 4.2 S 35 52 19 28 1018.8 1018.8 0.0
28/02:33pm 19.3 13.5 12.6 65 3.8 S 35 54 19 29 1018.7 - 0.0
28/02:30pm 18.7 11.9 12.0 65 3.7 S 39 54 21 29 1018.6 - 0.0
28/02:04pm 19.0 13.8 12.7 67 3.5 S 32 50 17 27 1018.6 - 0.0
28/02:00pm 19.2 13.8 12.9 67 3.5 S 33 46 18 25 1018.5 1018.5 0.0
28/01:30pm 19.4 13.0 11.9 62 4.2 S 37 56 20 30 1018.4 - 0.0
28/01:16pm 19.5 13.3 11.5 60 4.4 S 35 54 19 29 1018.3 - 0.0
28/01:00pm 20.2 14.4 12.7 62 4.2 S 35 50 19 27 1018.3 1018.3 0.0
28/12:30pm 19.7 13.5 11.5 59 4.5 S 35 56 19 30 1018.3 - 0.0
28/12:00pm 19.5 12.9 11.3 59 4.5 S 37 56 20 30 1018.6 1018.6 0.0
28/11:30am 19.5 12.1 9.7 53 5.2 S 39 61 21 33 1018.7 - 0.0
28/11:02am 19.3 11.9 11.1 59 4.5 S 41 61 22 33 1018.7 - 0.0
28/11:00am 19.4 12.0 11.2 59 4.5 S 41 57 22 31 1018.7 1018.7 0.0
28/10:30am 19.1 11.7 11.2 60 4.3 S 41 61 22 33 1018.6 - 0.0

Other Formats:

Comma delimited format used in spreadsheet applications
http://www.bom.gov.au/fwo/IDN60801/IDN60801.94596.axf

JavaScript Object Notation format (JSON) in row-major order
http://www.bom.gov.au/fwo/IDN60801/IDN60801.94596.json